Terminal Aerodrome Forecast
Issued by NWS Central Illinois

Home | Current Version | Previous Version | Text Only | Print | Product List | Glossary On
Versions: 1 2 3 4 5 6 7 8 9 10 11 12 13 14 15 16 17 18 19 20
000
FTUS43 KILX 242300
TAFSPI
TAF
KSPI 242326Z 2500/2524 06004KT P6SM SCT250
     FM251000 15007KT P6SM SCT100 BKN250
     FM251500 19010KT P6SM VCSH SCT050 BKN120
     FM251900 19014G20KT P6SM BKN150=

USA.gov is the U.S. government's official web portal to all federal, state and local government web resources and services.